sensor_id;sensor_type;location;lat;lon;timestamp;P1;durP1;ratioP1;P2;durP2;ratioP2
23142;SDS011;11740;51.168;4.112;2023-10-08T00:01:10;3.97;;;2.72;;
23142;SDS011;11740;51.168;4.112;2023-10-08T00:03:44;6.78;;;2.95;;
23142;SDS011;11740;51.168;4.112;2023-10-08T00:06:16;5.60;;;2.63;;
23142;SDS011;11740;51.168;4.112;2023-10-08T00:08:48;6.88;;;2.78;;
23142;SDS011;11740;51.168;4.112;2023-10-08T00:11:18;9.00;;;3.10;;
23142;SDS011;11740;51.168;4.112;2023-10-08T00:13:45;7.90;;;2.95;;
23142;SDS011;11740;51.168;4.112;2023-10-08T00:16:15;6.78;;;2.95;;
23142;SDS011;11740;51.168;4.112;2023-10-08T00:18:45;6.45;;;3.28;;
23142;SDS011;11740;51.168;4.112;2023-10-08T00:21:17;7.07;;;3.15;;
23142;SDS011;11740;51.168;4.112;2023-10-08T00:23:46;5.28;;;2.92;;
23142;SDS011;11740;51.168;4.112;2023-10-08T00:26:19;7.72;;;2.88;;
23142;SDS011;11740;51.168;4.112;2023-10-08T00:28:59;6.72;;;2.75;;
23142;SDS011;11740;51.168;4.112;2023-10-08T00:31:33;6.93;;;3.35;;
23142;SDS011;11740;51.168;4.112;2023-10-08T00:34:07;5.78;;;2.85;;
23142;SDS011;11740;51.168;4.112;2023-10-08T00:36:38;6.72;;;2.92;;
23142;SDS011;11740;51.168;4.112;2023-10-08T00:39:08;6.90;;;3.25;;
23142;SDS011;11740;51.168;4.112;2023-10-08T00:42:00;5.80;;;2.85;;
23142;SDS011;11740;51.168;4.112;2023-10-08T00:44:31;7.25;;;3.10;;
23142;SDS011;11740;51.168;4.112;2023-10-08T00:47:02;8.88;;;3.30;;
23142;SDS011;11740;51.168;4.112;2023-10-08T00:49:32;5.20;;;2.75;;
23142;SDS011;11740;51.168;4.112;2023-10-08T00:52:06;4.90;;;2.90;;
23142;SDS011;11740;51.168;4.112;2023-10-08T00:54:37;6.32;;;3.10;;
23142;SDS011;11740;51.168;4.112;2023-10-08T00:57:18;7.55;;;3.25;;
23142;SDS011;11740;51.168;4.112;2023-10-08T00:59:48;10.02;;;3.13;;
23142;SDS011;11740;51.168;4.112;2023-10-08T01:02:24;7.57;;;3.05;;
23142;SDS011;11740;51.168;4.112;2023-10-08T01:04:55;7.25;;;3.03;;
23142;SDS011;11740;51.168;4.112;2023-10-08T01:07:22;6.60;;;3.10;;
23142;SDS011;11740;51.168;4.112;2023-10-08T01:09:51;5.40;;;2.88;;
23142;SDS011;11740;51.168;4.112;2023-10-08T01:12:24;7.95;;;3.15;;
23142;SDS011;11740;51.168;4.112;2023-10-08T01:15:02;8.52;;;3.08;;
23142;SDS011;11740;51.168;4.112;2023-10-08T01:17:55;6.68;;;3.03;;
23142;SDS011;11740;51.168;4.112;2023-10-08T01:20:26;7.80;;;3.10;;
23142;SDS011;11740;51.168;4.112;2023-10-08T01:23:06;7.63;;;3.17;;
23142;SDS011;11740;51.168;4.112;2023-10-08T01:25:43;9.68;;;3.30;;
23142;SDS011;11740;51.168;4.112;2023-10-08T01:28:27;8.60;;;3.08;;
23142;SDS011;11740;51.168;4.112;2023-10-08T01:30:59;5.60;;;3.03;;
23142;SDS011;11740;51.168;4.112;2023-10-08T01:33:27;6.75;;;3.45;;
23142;SDS011;11740;51.168;4.112;2023-10-08T01:35:55;6.45;;;3.10;;
23142;SDS011;11740;51.168;4.112;2023-10-08T01:38:29;10.13;;;3.25;;
23142;SDS011;11740;51.168;4.112;2023-10-08T01:40:57;8.40;;;3.47;;
23142;SDS011;11740;51.168;4.112;2023-10-08T01:43:29;7.53;;;3.00;;
23142;SDS011;11740;51.168;4.112;2023-10-08T01:45:56;6.60;;;3.22;;
23142;SDS011;11740;51.168;4.112;2023-10-08T01:48:23;5.22;;;2.92;;
23142;SDS011;11740;51.168;4.112;2023-10-08T01:51:03;5.85;;;3.10;;
23142;SDS011;11740;51.168;4.112;2023-10-08T01:53:35;5.72;;;3.38;;
23142;SDS011;11740;51.168;4.112;2023-10-08T01:56:04;5.70;;;3.08;;
23142;SDS011;11740;51.168;4.112;2023-10-08T01:58:31;9.50;;;3.60;;
23142;SDS011;11740;51.168;4.112;2023-10-08T02:01:02;7.50;;;3.50;;
23142;SDS011;11740;51.168;4.112;2023-10-08T02:03:31;9.13;;;3.30;;
23142;SDS011;11740;51.168;4.112;2023-10-08T02:05:58;7.57;;;3.40;;
23142;SDS011;11740;51.168;4.112;2023-10-08T02:08:26;8.43;;;3.90;;
23142;SDS011;11740;51.168;4.112;2023-10-08T02:10:53;9.05;;;3.42;;
23142;SDS011;11740;51.168;4.112;2023-10-08T02:13:20;6.43;;;3.53;;
23142;SDS011;11740;51.168;4.112;2023-10-08T02:15:50;7.95;;;3.28;;
23142;SDS011;11740;51.168;4.112;2023-10-08T02:18:18;7.28;;;3.40;;
23142;SDS011;11740;51.168;4.112;2023-10-08T02:20:46;8.43;;;3.60;;
23142;SDS011;11740;51.168;4.112;2023-10-08T02:23:15;9.48;;;3.90;;
23142;SDS011;11740;51.168;4.112;2023-10-08T02:25:42;7.10;;;3.58;;
23142;SDS011;11740;51.168;4.112;2023-10-08T02:28:09;8.68;;;4.13;;
23142;SDS011;11740;51.168;4.112;2023-10-08T02:30:39;8.02;;;4.00;;
23142;SDS011;11740;51.168;4.112;2023-10-08T02:33:06;10.02;;;3.80;;
23142;SDS011;11740;51.168;4.112;2023-10-08T02:35:43;6.43;;;3.47;;
23142;SDS011;11740;51.168;4.112;2023-10-08T02:38:13;6.20;;;3.70;;
23142;SDS011;11740;51.168;4.112;2023-10-08T02:40:44;10.50;;;3.90;;
23142;SDS011;11740;51.168;4.112;2023-10-08T02:43:13;8.88;;;4.18;;
23142;SDS011;11740;51.168;4.112;2023-10-08T02:45:42;9.35;;;3.70;;
23142;SDS011;11740;51.168;4.112;2023-10-08T02:48:14;8.93;;;3.97;;
23142;SDS011;11740;51.168;4.112;2023-10-08T02:50:43;10.23;;;4.20;;
23142;SDS011;11740;51.168;4.112;2023-10-08T02:53:13;7.25;;;3.83;;
23142;SDS011;11740;51.168;4.112;2023-10-08T02:55:50;12.27;;;4.18;;
23142;SDS011;11740;51.168;4.112;2023-10-08T02:58:17;8.65;;;3.88;;
23142;SDS011;11740;51.168;4.112;2023-10-08T03:00:47;6.43;;;3.42;;
23142;SDS011;11740;51.168;4.112;2023-10-08T03:03:16;9.85;;;3.97;;
23142;SDS011;11740;51.168;4.112;2023-10-08T03:05:49;10.32;;;3.95;;
23142;SDS011;11740;51.168;4.112;2023-10-08T03:08:18;8.50;;;3.75;;
23142;SDS011;11740;51.168;4.112;2023-10-08T03:10:48;6.20;;;3.72;;
23142;SDS011;11740;51.168;4.112;2023-10-08T03:13:22;7.90;;;3.70;;
23142;SDS011;11740;51.168;4.112;2023-10-08T03:15:49;8.75;;;3.88;;
23142;SDS011;11740;51.168;4.112;2023-10-08T03:18:29;8.88;;;3.92;;
23142;SDS011;11740;51.168;4.112;2023-10-08T03:21:06;7.32;;;4.13;;
23142;SDS011;11740;51.168;4.112;2023-10-08T03:23:50;8.10;;;3.80;;
23142;SDS011;11740;51.168;4.112;2023-10-08T03:26:18;8.85;;;3.97;;
23142;SDS011;11740;51.168;4.112;2023-10-08T03:28:59;6.80;;;3.13;;
23142;SDS011;11740;51.168;4.112;2023-10-08T03:34:18;9.98;;;3.88;;
23142;SDS011;11740;51.168;4.112;2023-10-08T03:36:46;9.45;;;3.80;;
23142;SDS011;11740;51.168;4.112;2023-10-08T03:39:17;8.32;;;3.80;;
23142;SDS011;11740;51.168;4.112;2023-10-08T03:41:45;8.30;;;3.65;;
23142;SDS011;11740;51.168;4.112;2023-10-08T03:44:32;10.82;;;4.05;;
23142;SDS011;11740;51.168;4.112;2023-10-08T03:47:04;9.80;;;4.75;;
23142;SDS011;11740;51.168;4.112;2023-10-08T03:49:37;6.83;;;3.67;;
23142;SDS011;11740;51.168;4.112;2023-10-08T03:52:12;9.73;;;4.68;;
23142;SDS011;11740;51.168;4.112;2023-10-08T03:54:42;11.15;;;4.10;;
23142;SDS011;11740;51.168;4.112;2023-10-08T03:57:15;5.70;;;3.83;;
23142;SDS011;11740;51.168;4.112;2023-10-08T03:59:54;9.82;;;4.47;;
23142;SDS011;11740;51.168;4.112;2023-10-08T04:02:25;9.30;;;3.92;;
23142;SDS011;11740;51.168;4.112;2023-10-08T04:05:13;5.57;;;3.95;;
23142;SDS011;11740;51.168;4.112;2023-10-08T04:07:46;8.77;;;4.30;;
23142;SDS011;11740;51.168;4.112;2023-10-08T04:10:34;10.00;;;4.20;;
23142;SDS011;11740;51.168;4.112;2023-10-08T04:13:05;7.65;;;4.07;;
23142;SDS011;11740;51.168;4.112;2023-10-08T04:15:42;8.85;;;4.28;;
23142;SDS011;11740;51.168;4.112;2023-10-08T04:18:10;13.10;;;4.82;;
23142;SDS011;11740;51.168;4.112;2023-10-08T04:20:40;10.05;;;4.88;;
23142;SDS011;11740;51.168;4.112;2023-10-08T04:23:27;11.45;;;4.10;;
23142;SDS011;11740;51.168;4.112;2023-10-08T04:25:57;7.20;;;4.05;;
23142;SDS011;11740;51.168;4.112;2023-10-08T04:28:25;9.88;;;4.95;;
23142;SDS011;11740;51.168;4.112;2023-10-08T04:30:55;11.82;;;4.78;;
23142;SDS011;11740;51.168;4.112;2023-10-08T04:33:28;9.80;;;4.43;;
23142;SDS011;11740;51.168;4.112;2023-10-08T04:36:00;10.85;;;4.45;;
23142;SDS011;11740;51.168;4.112;2023-10-08T04:38:28;8.32;;;4.47;;
23142;SDS011;11740;51.168;4.112;2023-10-08T04:40:56;8.27;;;4.70;;
23142;SDS011;11740;51.168;4.112;2023-10-08T04:43:28;10.10;;;4.43;;
23142;SDS011;11740;51.168;4.112;2023-10-08T04:46:00;8.73;;;4.55;;
23142;SDS011;11740;51.168;4.112;2023-10-08T04:48:46;9.45;;;5.25;;
23142;SDS011;11740;51.168;4.112;2023-10-08T04:51:15;8.75;;;5.00;;
23142;SDS011;11740;51.168;4.112;2023-10-08T04:53:44;7.68;;;5.05;;
23142;SDS011;11740;51.168;4.112;2023-10-08T04:56:14;10.90;;;4.60;;
23142;SDS011;11740;51.168;4.112;2023-10-08T04:58:44;9.75;;;4.70;;
23142;SDS011;11740;51.168;4.112;2023-10-08T05:01:14;9.60;;;4.88;;
23142;SDS011;11740;51.168;4.112;2023-10-08T05:03:48;8.90;;;4.43;;
23142;SDS011;11740;51.168;4.112;2023-10-08T05:09:03;7.80;;;4.40;;
23142;SDS011;11740;51.168;4.112;2023-10-08T05:11:47;10.05;;;3.95;;
23142;SDS011;11740;51.168;4.112;2023-10-08T05:14:25;9.95;;;4.65;;
23142;SDS011;11740;51.168;4.112;2023-10-08T05:17:10;7.80;;;4.28;;
23142;SDS011;11740;51.168;4.112;2023-10-08T05:19:38;10.40;;;5.00;;
23142;SDS011;11740;51.168;4.112;2023-10-08T05:22:07;8.27;;;4.40;;
23142;SDS011;11740;51.168;4.112;2023-10-08T05:24:45;9.25;;;5.22;;
23142;SDS011;11740;51.168;4.112;2023-10-08T05:27:34;10.52;;;5.03;;
23142;SDS011;11740;51.168;4.112;2023-10-08T05:30:18;13.07;;;4.95;;
23142;SDS011;11740;51.168;4.112;2023-10-08T05:33:04;9.07;;;4.43;;
23142;SDS011;11740;51.168;4.112;2023-10-08T05:35:39;9.68;;;5.22;;
23142;SDS011;11740;51.168;4.112;2023-10-08T05:38:08;9.63;;;4.78;;
23142;SDS011;11740;51.168;4.112;2023-10-08T05:40:51;11.10;;;5.45;;
23142;SDS011;11740;51.168;4.112;2023-10-08T05:43:35;10.00;;;5.13;;
23142;SDS011;11740;51.168;4.112;2023-10-08T05:46:04;10.18;;;4.80;;
23142;SDS011;11740;51.168;4.112;2023-10-08T05:48:52;9.63;;;5.03;;
23142;SDS011;11740;51.168;4.112;2023-10-08T05:51:29;9.25;;;5.18;;
23142;SDS011;11740;51.168;4.112;2023-10-08T05:54:17;9.90;;;4.65;;
23142;SDS011;11740;51.168;4.112;2023-10-08T05:57:03;10.77;;;5.40;;
23142;SDS011;11740;51.168;4.112;2023-10-08T05:59:38;11.77;;;5.93;;
23142;SDS011;11740;51.168;4.112;2023-10-08T06:02:23;11.98;;;5.03;;
23142;SDS011;11740;51.168;4.112;2023-10-08T06:07:39;9.65;;;4.93;;
23142;SDS011;11740;51.168;4.112;2023-10-08T06:10:14;7.85;;;4.55;;
23142;SDS011;11740;51.168;4.112;2023-10-08T06:13:05;11.38;;;4.93;;
23142;SDS011;11740;51.168;4.112;2023-10-08T06:15:56;9.27;;;4.82;;
23142;SDS011;11740;51.168;4.112;2023-10-08T06:18:25;9.73;;;5.07;;
23142;SDS011;11740;51.168;4.112;2023-10-08T06:20:54;14.23;;;6.25;;
23142;SDS011;11740;51.168;4.112;2023-10-08T06:23:28;12.00;;;5.68;;
23142;SDS011;11740;51.168;4.112;2023-10-08T06:26:02;11.43;;;6.35;;
23142;SDS011;11740;51.168;4.112;2023-10-08T06:28:44;11.23;;;5.03;;
23142;SDS011;11740;51.168;4.112;2023-10-08T06:31:11;12.32;;;5.57;;
23142;SDS011;11740;51.168;4.112;2023-10-08T06:33:43;10.20;;;5.30;;
23142;SDS011;11740;51.168;4.112;2023-10-08T06:36:11;11.32;;;4.95;;
23142;SDS011;11740;51.168;4.112;2023-10-08T06:38:39;9.18;;;5.10;;
23142;SDS011;11740;51.168;4.112;2023-10-08T06:41:15;11.68;;;4.85;;
23142;SDS011;11740;51.168;4.112;2023-10-08T06:44:05;11.50;;;5.45;;
23142;SDS011;11740;51.168;4.112;2023-10-08T06:46:32;9.93;;;4.82;;
23142;SDS011;11740;51.168;4.112;2023-10-08T06:49:06;11.82;;;4.93;;
23142;SDS011;11740;51.168;4.112;2023-10-08T06:51:39;11.15;;;5.22;;
23142;SDS011;11740;51.168;4.112;2023-10-08T06:54:10;9.52;;;5.20;;
23142;SDS011;11740;51.168;4.112;2023-10-08T06:56:44;13.10;;;5.25;;
23142;SDS011;11740;51.168;4.112;2023-10-08T06:59:19;13.00;;;5.40;;
23142;SDS011;11740;51.168;4.112;2023-10-08T07:01:50;8.02;;;4.45;;
23142;SDS011;11740;51.168;4.112;2023-10-08T07:04:18;12.85;;;5.78;;
23142;SDS011;11740;51.168;4.112;2023-10-08T07:06:49;11.15;;;5.65;;
23142;SDS011;11740;51.168;4.112;2023-10-08T07:09:17;17.35;;;5.90;;
23142;SDS011;11740;51.168;4.112;2023-10-08T07:12:10;10.35;;;5.35;;
23142;SDS011;11740;51.168;4.112;2023-10-08T07:14:40;10.05;;;5.20;;
23142;SDS011;11740;51.168;4.112;2023-10-08T07:17:08;11.82;;;6.55;;
23142;SDS011;11740;51.168;4.112;2023-10-08T07:19:38;9.95;;;5.53;;
23142;SDS011;11740;51.168;4.112;2023-10-08T07:22:07;12.10;;;5.72;;
23142;SDS011;11740;51.168;4.112;2023-10-08T07:24:48;11.55;;;5.57;;
23142;SDS011;11740;51.168;4.112;2023-10-08T07:27:18;13.85;;;5.85;;
23142;SDS011;11740;51.168;4.112;2023-10-08T07:29:51;9.03;;;5.40;;
23142;SDS011;11740;51.168;4.112;2023-10-08T07:32:23;11.57;;;6.20;;
23142;SDS011;11740;51.168;4.112;2023-10-08T07:34:52;10.98;;;5.47;;
23142;SDS011;11740;51.168;4.112;2023-10-08T07:37:24;10.85;;;5.82;;
23142;SDS011;11740;51.168;4.112;2023-10-08T07:39:52;12.43;;;6.53;;
23142;SDS011;11740;51.168;4.112;2023-10-08T07:42:21;10.77;;;6.07;;
23142;SDS011;11740;51.168;4.112;2023-10-08T07:44:48;14.55;;;6.78;;
23142;SDS011;11740;51.168;4.112;2023-10-08T07:47:20;13.95;;;6.80;;
23142;SDS011;11740;51.168;4.112;2023-10-08T07:49:48;14.57;;;7.00;;
23142;SDS011;11740;51.168;4.112;2023-10-08T07:52:17;13.77;;;6.88;;
23142;SDS011;11740;51.168;4.112;2023-10-08T07:54:44;18.52;;;7.07;;
23142;SDS011;11740;51.168;4.112;2023-10-08T07:57:11;12.80;;;7.05;;
23142;SDS011;11740;51.168;4.112;2023-10-08T07:59:43;13.85;;;7.13;;
23142;SDS011;11740;51.168;4.112;2023-10-08T08:02:15;12.43;;;7.25;;
23142;SDS011;11740;51.168;4.112;2023-10-08T08:04:44;17.58;;;7.60;;
23142;SDS011;11740;51.168;4.112;2023-10-08T08:07:17;14.55;;;7.63;;
23142;SDS011;11740;51.168;4.112;2023-10-08T08:09:49;17.73;;;7.60;;
23142;SDS011;11740;51.168;4.112;2023-10-08T08:12:25;14.57;;;7.95;;
23142;SDS011;11740;51.168;4.112;2023-10-08T08:14:59;13.90;;;7.35;;
23142;SDS011;11740;51.168;4.112;2023-10-08T08:17:30;17.00;;;7.78;;
23142;SDS011;11740;51.168;4.112;2023-10-08T08:19:57;15.35;;;8.30;;
23142;SDS011;11740;51.168;4.112;2023-10-08T08:22:24;17.88;;;7.80;;
23142;SDS011;11740;51.168;4.112;2023-10-08T08:24:59;16.08;;;7.88;;
23142;SDS011;11740;51.168;4.112;2023-10-08T08:27:42;16.50;;;8.25;;
23142;SDS011;11740;51.168;4.112;2023-10-08T08:30:13;16.77;;;7.90;;
23142;SDS011;11740;51.168;4.112;2023-10-08T08:32:44;16.98;;;8.35;;
23142;SDS011;11740;51.168;4.112;2023-10-08T08:35:19;24.00;;;8.40;;
23142;SDS011;11740;51.168;4.112;2023-10-08T08:37:47;21.50;;;8.50;;
23142;SDS011;11740;51.168;4.112;2023-10-08T08:40:18;19.02;;;9.23;;
23142;SDS011;11740;51.168;4.112;2023-10-08T08:42:47;18.88;;;9.32;;
23142;SDS011;11740;51.168;4.112;2023-10-08T08:45:20;17.27;;;8.10;;
23142;SDS011;11740;51.168;4.112;2023-10-08T08:47:51;17.88;;;8.63;;
23142;SDS011;11740;51.168;4.112;2023-10-08T08:50:19;19.27;;;7.95;;
23142;SDS011;11740;51.168;4.112;2023-10-08T08:52:47;19.98;;;8.57;;
23142;SDS011;11740;51.168;4.112;2023-10-08T08:55:15;17.65;;;8.30;;
23142;SDS011;11740;51.168;4.112;2023-10-08T08:57:46;16.90;;;8.43;;
23142;SDS011;11740;51.168;4.112;2023-10-08T09:00:15;17.77;;;7.93;;
23142;SDS011;11740;51.168;4.112;2023-10-08T09:02:45;16.95;;;7.70;;
23142;SDS011;11740;51.168;4.112;2023-10-08T09:05:15;19.38;;;9.18;;
23142;SDS011;11740;51.168;4.112;2023-10-08T09:10:25;17.90;;;8.65;;
23142;SDS011;11740;51.168;4.112;2023-10-08T09:12:54;21.33;;;9.00;;
23142;SDS011;11740;51.168;4.112;2023-10-08T09:15:25;20.35;;;8.63;;
23142;SDS011;11740;51.168;4.112;2023-10-08T09:17:54;20.73;;;8.25;;
23142;SDS011;11740;51.168;4.112;2023-10-08T09:20:27;18.98;;;8.50;;
23142;SDS011;11740;51.168;4.112;2023-10-08T09:23:05;18.83;;;8.02;;
23142;SDS011;11740;51.168;4.112;2023-10-08T09:25:40;15.45;;;8.38;;
23142;SDS011;11740;51.168;4.112;2023-10-08T09:28:10;16.88;;;7.97;;
23142;SDS011;11740;51.168;4.112;2023-10-08T09:30:42;19.08;;;9.10;;
23142;SDS011;11740;51.168;4.112;2023-10-08T09:33:12;19.10;;;9.25;;
23142;SDS011;11740;51.168;4.112;2023-10-08T09:35:41;18.08;;;8.95;;
23142;SDS011;11740;51.168;4.112;2023-10-08T09:38:12;18.63;;;9.10;;
23142;SDS011;11740;51.168;4.112;2023-10-08T09:40:39;17.30;;;9.15;;
23142;SDS011;11740;51.168;4.112;2023-10-08T09:43:11;19.05;;;8.85;;
23142;SDS011;11740;51.168;4.112;2023-10-08T09:45:39;23.58;;;9.18;;
23142;SDS011;11740;51.168;4.112;2023-10-08T09:48:15;24.42;;;9.50;;
23142;SDS011;11740;51.168;4.112;2023-10-08T09:50:46;16.27;;;9.00;;
23142;SDS011;11740;51.168;4.112;2023-10-08T09:53:14;19.00;;;9.57;;
23142;SDS011;11740;51.168;4.112;2023-10-08T09:55:44;18.08;;;8.90;;
23142;SDS011;11740;51.168;4.112;2023-10-08T09:58:22;19.95;;;9.35;;
23142;SDS011;11740;51.168;4.112;2023-10-08T10:00:51;15.25;;;8.30;;
23142;SDS011;11740;51.168;4.112;2023-10-08T10:03:23;20.23;;;8.75;;
23142;SDS011;11740;51.168;4.112;2023-10-08T10:05:53;18.35;;;8.40;;
23142;SDS011;11740;51.168;4.112;2023-10-08T10:08:25;18.60;;;8.52;;
23142;SDS011;11740;51.168;4.112;2023-10-08T10:11:00;19.75;;;9.10;;
23142;SDS011;11740;51.168;4.112;2023-10-08T10:13:34;17.38;;;9.10;;
23142;SDS011;11740;51.168;4.112;2023-10-08T10:16:09;18.95;;;8.70;;
23142;SDS011;11740;51.168;4.112;2023-10-08T10:18:43;26.75;;;8.80;;
23142;SDS011;11740;51.168;4.112;2023-10-08T10:23:42;19.65;;;8.45;;
23142;SDS011;11740;51.168;4.112;2023-10-08T10:26:21;16.90;;;7.97;;
23142;SDS011;11740;51.168;4.112;2023-10-08T10:31:38;20.30;;;9.13;;
23142;SDS011;11740;51.168;4.112;2023-10-08T10:34:07;16.30;;;8.05;;
23142;SDS011;11740;51.168;4.112;2023-10-08T10:36:38;14.82;;;8.00;;
23142;SDS011;11740;51.168;4.112;2023-10-08T10:39:07;17.85;;;8.45;;
23142;SDS011;11740;51.168;4.112;2023-10-08T10:41:46;21.05;;;8.38;;
23142;SDS011;11740;51.168;4.112;2023-10-08T10:44:15;19.98;;;8.43;;
23142;SDS011;11740;51.168;4.112;2023-10-08T10:46:43;16.08;;;8.70;;
23142;SDS011;11740;51.168;4.112;2023-10-08T10:49:23;17.95;;;8.18;;
23142;SDS011;11740;51.168;4.112;2023-10-08T10:51:58;15.90;;;8.00;;
23142;SDS011;11740;51.168;4.112;2023-10-08T10:54:25;17.70;;;8.57;;
23142;SDS011;11740;51.168;4.112;2023-10-08T10:56:53;17.83;;;8.55;;
23142;SDS011;11740;51.168;4.112;2023-10-08T10:59:35;19.45;;;8.27;;
23142;SDS011;11740;51.168;4.112;2023-10-08T11:02:08;19.20;;;7.68;;
23142;SDS011;11740;51.168;4.112;2023-10-08T11:04:47;14.85;;;8.82;;
23142;SDS011;11740;51.168;4.112;2023-10-08T11:07:18;16.08;;;8.48;;
23142;SDS011;11740;51.168;4.112;2023-10-08T11:09:47;14.32;;;7.82;;
23142;SDS011;11740;51.168;4.112;2023-10-08T11:12:14;19.67;;;9.10;;
23142;SDS011;11740;51.168;4.112;2023-10-08T11:14:49;19.08;;;7.82;;
23142;SDS011;11740;51.168;4.112;2023-10-08T11:17:24;16.65;;;8.02;;
23142;SDS011;11740;51.168;4.112;2023-10-08T11:19:53;19.33;;;8.18;;
23142;SDS011;11740;51.168;4.112;2023-10-08T11:22:20;21.80;;;8.27;;
23142;SDS011;11740;51.168;4.112;2023-10-08T11:24:49;18.35;;;8.10;;
23142;SDS011;11740;51.168;4.112;2023-10-08T11:27:23;15.60;;;8.20;;
23142;SDS011;11740;51.168;4.112;2023-10-08T11:30:02;19.85;;;8.40;;
23142;SDS011;11740;51.168;4.112;2023-10-08T11:32:38;20.20;;;8.05;;
23142;SDS011;11740;51.168;4.112;2023-10-08T11:35:06;20.77;;;8.68;;
23142;SDS011;11740;51.168;4.112;2023-10-08T11:37:46;15.82;;;7.80;;
23142;SDS011;11740;51.168;4.112;2023-10-08T11:40:23;17.60;;;7.97;;
23142;SDS011;11740;51.168;4.112;2023-10-08T11:42:56;17.60;;;7.60;;
23142;SDS011;11740;51.168;4.112;2023-10-08T11:45:25;16.63;;;7.85;;
23142;SDS011;11740;51.168;4.112;2023-10-08T11:47:53;19.05;;;7.95;;
23142;SDS011;11740;51.168;4.112;2023-10-08T11:50:29;18.10;;;7.28;;
23142;SDS011;11740;51.168;4.112;2023-10-08T11:53:01;17.48;;;7.78;;
23142;SDS011;11740;51.168;4.112;2023-10-08T11:55:35;17.20;;;7.53;;
23142;SDS011;11740;51.168;4.112;2023-10-08T11:58:04;21.55;;;7.25;;
23142;SDS011;11740;51.168;4.112;2023-10-08T12:00:41;14.50;;;7.35;;
23142;SDS011;11740;51.168;4.112;2023-10-08T12:03:18;18.55;;;7.65;;
23142;SDS011;11740;51.168;4.112;2023-10-08T12:05:49;16.88;;;7.53;;
23142;SDS011;11740;51.168;4.112;2023-10-08T12:08:26;17.48;;;8.18;;
23142;SDS011;11740;51.168;4.112;2023-10-08T12:10:54;15.80;;;7.45;;
23142;SDS011;11740;51.168;4.112;2023-10-08T12:13:21;16.98;;;7.10;;
23142;SDS011;11740;51.168;4.112;2023-10-08T12:15:54;18.15;;;7.25;;
23142;SDS011;11740;51.168;4.112;2023-10-08T12:18:38;15.60;;;7.22;;
23142;SDS011;11740;51.168;4.112;2023-10-08T12:21:07;15.95;;;6.78;;
23142;SDS011;11740;51.168;4.112;2023-10-08T12:23:38;17.13;;;7.50;;
23142;SDS011;11740;51.168;4.112;2023-10-08T12:26:07;14.88;;;6.72;;
23142;SDS011;11740;51.168;4.112;2023-10-08T12:28:35;15.18;;;7.25;;
23142;SDS011;11740;51.168;4.112;2023-10-08T12:31:03;19.38;;;7.70;;
23142;SDS011;11740;51.168;4.112;2023-10-08T12:33:30;13.20;;;6.70;;
23142;SDS011;11740;51.168;4.112;2023-10-08T12:35:58;16.15;;;7.05;;
23142;SDS011;11740;51.168;4.112;2023-10-08T12:38:38;14.98;;;6.57;;
23142;SDS011;11740;51.168;4.112;2023-10-08T12:41:13;19.50;;;6.97;;
23142;SDS011;11740;51.168;4.112;2023-10-08T12:43:42;19.13;;;7.10;;
23142;SDS011;11740;51.168;4.112;2023-10-08T12:46:12;12.63;;;6.65;;
23142;SDS011;11740;51.168;4.112;2023-10-08T12:48:45;20.05;;;6.93;;
23142;SDS011;11740;51.168;4.112;2023-10-08T12:51:15;15.55;;;7.43;;
23142;SDS011;11740;51.168;4.112;2023-10-08T12:53:42;16.25;;;6.82;;
23142;SDS011;11740;51.168;4.112;2023-10-08T12:56:17;17.05;;;6.75;;
23142;SDS011;11740;51.168;4.112;2023-10-08T12:58:48;16.38;;;7.35;;
23142;SDS011;11740;51.168;4.112;2023-10-08T13:01:17;13.32;;;6.22;;
23142;SDS011;11740;51.168;4.112;2023-10-08T13:03:45;15.00;;;6.50;;
23142;SDS011;11740;51.168;4.112;2023-10-08T13:06:17;14.70;;;7.28;;
23142;SDS011;11740;51.168;4.112;2023-10-08T13:08:55;17.58;;;7.00;;
23142;SDS011;11740;51.168;4.112;2023-10-08T13:11:25;13.65;;;5.82;;
23142;SDS011;11740;51.168;4.112;2023-10-08T13:13:56;17.45;;;6.55;;
23142;SDS011;11740;51.168;4.112;2023-10-08T13:16:25;13.32;;;6.72;;
23142;SDS011;11740;51.168;4.112;2023-10-08T13:19:04;12.68;;;6.28;;
23142;SDS011;11740;51.168;4.112;2023-10-08T13:21:31;15.70;;;6.22;;
23142;SDS011;11740;51.168;4.112;2023-10-08T13:23:59;13.10;;;6.13;;
23142;SDS011;11740;51.168;4.112;2023-10-08T13:26:26;14.05;;;6.35;;
23142;SDS011;11740;51.168;4.112;2023-10-08T13:28:58;15.10;;;6.68;;
23142;SDS011;11740;51.168;4.112;2023-10-08T13:31:25;15.95;;;6.00;;
23142;SDS011;11740;51.168;4.112;2023-10-08T13:33:53;15.30;;;6.25;;
23142;SDS011;11740;51.168;4.112;2023-10-08T13:36:23;14.15;;;6.13;;
23142;SDS011;11740;51.168;4.112;2023-10-08T13:38:50;11.18;;;5.65;;
23142;SDS011;11740;51.168;4.112;2023-10-08T13:41:18;10.88;;;6.07;;
23142;SDS011;11740;51.168;4.112;2023-10-08T13:43:46;13.45;;;5.78;;
23142;SDS011;11740;51.168;4.112;2023-10-08T13:46:18;14.02;;;6.30;;
23142;SDS011;11740;51.168;4.112;2023-10-08T13:48:49;13.25;;;5.28;;
23142;SDS011;11740;51.168;4.112;2023-10-08T13:51:17;15.75;;;5.70;;
23142;SDS011;11740;51.168;4.112;2023-10-08T13:53:53;11.13;;;5.65;;
23142;SDS011;11740;51.168;4.112;2023-10-08T13:56:26;11.73;;;5.13;;
23142;SDS011;11740;51.168;4.112;2023-10-08T13:58:58;8.68;;;4.90;;
23142;SDS011;11740;51.168;4.112;2023-10-08T14:01:39;9.77;;;4.90;;
23142;SDS011;11740;51.168;4.112;2023-10-08T14:04:13;13.57;;;5.45;;
23142;SDS011;11740;51.168;4.112;2023-10-08T14:06:47;8.55;;;4.85;;
23142;SDS011;11740;51.168;4.112;2023-10-08T14:09:19;11.50;;;5.60;;
23142;SDS011;11740;51.168;4.112;2023-10-08T14:11:59;10.35;;;5.03;;
23142;SDS011;11740;51.168;4.112;2023-10-08T14:14:27;11.15;;;5.30;;
23142;SDS011;11740;51.168;4.112;2023-10-08T14:17:00;10.57;;;5.25;;
23142;SDS011;11740;51.168;4.112;2023-10-08T14:19:37;11.02;;;4.93;;
23142;SDS011;11740;51.168;4.112;2023-10-08T14:22:13;10.18;;;5.07;;
23142;SDS011;11740;51.168;4.112;2023-10-08T14:24:41;12.02;;;5.43;;
23142;SDS011;11740;51.168;4.112;2023-10-08T14:27:12;10.90;;;5.65;;
23142;SDS011;11740;51.168;4.112;2023-10-08T14:29:42;8.35;;;4.70;;
23142;SDS011;11740;51.168;4.112;2023-10-08T14:32:18;9.45;;;5.13;;
23142;SDS011;11740;51.168;4.112;2023-10-08T14:34:46;11.40;;;5.22;;
23142;SDS011;11740;51.168;4.112;2023-10-08T14:37:14;8.63;;;5.10;;
23142;SDS011;11740;51.168;4.112;2023-10-08T14:40:00;10.02;;;5.45;;
23142;SDS011;11740;51.168;4.112;2023-10-08T14:42:46;12.73;;;5.28;;
23142;SDS011;11740;51.168;4.112;2023-10-08T14:45:25;10.70;;;4.68;;
23142;SDS011;11740;51.168;4.112;2023-10-08T14:48:02;9.57;;;4.78;;
23142;SDS011;11740;51.168;4.112;2023-10-08T14:50:34;11.02;;;5.00;;
23142;SDS011;11740;51.168;4.112;2023-10-08T14:53:01;10.43;;;5.30;;
23142;SDS011;11740;51.168;4.112;2023-10-08T14:55:32;9.70;;;5.03;;
23142;SDS011;11740;51.168;4.112;2023-10-08T14:58:02;9.90;;;4.55;;
23142;SDS011;11740;51.168;4.112;2023-10-08T15:00:36;12.60;;;4.97;;
23142;SDS011;11740;51.168;4.112;2023-10-08T15:03:05;16.48;;;5.35;;
23142;SDS011;11740;51.168;4.112;2023-10-08T15:05:33;14.02;;;5.10;;
23142;SDS011;11740;51.168;4.112;2023-10-08T15:08:03;9.70;;;4.88;;
23142;SDS011;11740;51.168;4.112;2023-10-08T15:10:36;9.73;;;5.28;;
23142;SDS011;11740;51.168;4.112;2023-10-08T15:13:03;11.68;;;5.13;;
23142;SDS011;11740;51.168;4.112;2023-10-08T15:15:30;9.02;;;4.88;;
23142;SDS011;11740;51.168;4.112;2023-10-08T15:18:01;9.50;;;4.78;;
23142;SDS011;11740;51.168;4.112;2023-10-08T15:20:38;10.73;;;4.63;;
23142;SDS011;11740;51.168;4.112;2023-10-08T15:23:07;6.90;;;4.28;;
23142;SDS011;11740;51.168;4.112;2023-10-08T15:25:38;12.52;;;5.40;;
23142;SDS011;11740;51.168;4.112;2023-10-08T15:28:06;8.85;;;4.90;;